Time;durP1;ratioP1;P1;durP2;ratioP2;P2;SDS_P1;SDS_P2;PMS_P1;PMS_P2;Temp;Humidity;BMP_temperature;BMP_pressure;BME280_temperature;BME280_humidity;BME280_pressure;Samples;Min_cycle;Max_cycle;Signal;HPM_P1;HPM_P2
2022/01/26 00:07:09;;;;;;;;;;;;;;;3.23;74.35;103193.72;5074901;28;19920;-73
2022/01/26 00:09:35;;;;;;;;;;;;;;;3.24;74.41;103193.59;5073546;28;19913;-72
2022/01/26 00:12:00;;;;;;;;;;;;;;;3.18;74.69;103194.06;5074421;28;19955;-72
2022/01/26 00:14:25;;;;;;;;;;;;;;;3.19;74.02;103188.59;5074605;28;20367;-73
2022/01/26 00:16:51;;;;;;;;;;;;;;;3.15;74.51;103191.63;5074370;28;20365;-74
2022/01/26 00:19:24;;;;;;;;;;;;;;;3.14;74.68;103190.78;5074575;28;19920;-70
2022/01/26 00:29:25;;;;;;;;;;;;;;;3.16;74.56;103179.97;5074363;28;19912;-77
2022/01/26 00:39:59;;;;;;;;;;;;;;;3.15;74.95;103175.56;5073728;28;19919;-74
2022/01/26 00:42:26;;;;;;;;;;;;;;;3.19;74.17;103179.72;5073821;28;20360;-71
2022/01/26 00:44:51;;;;;;;;;;;;;;;3.11;74.49;103174.09;5073846;28;20387;-75
2022/01/26 00:47:17;;;;;;;;;;;;;;;3.08;74.88;103175.22;5073938;28;19947;-71
2022/01/26 00:49:42;;;;;;;;;;;;;;;3.06;74.90;103178.97;5073704;28;20271;-70
2022/01/26 00:52:12;;;;;;;;;;;;;;;3.04;75.06;103172.91;5072614;28;19912;-72
2022/01/26 00:54:37;;;;;;;;;;;;;;;3.04;75.23;103183.59;5073807;28;19912;-72
2022/01/26 00:57:03;;;;;;;;;;;;;;;3.05;74.91;103169.22;5073630;28;19973;-76
2022/01/26 00:59:28;;;;;;;;;;;;;;;3.06;75.13;103173.63;5073794;28;19916;-74
2022/01/26 01:01:55;;;;;;;;;;;;;;;3.05;74.85;103170.09;5070776;28;19923;-70
2022/01/26 01:04:20;;;;;;;;;;;;;;;3.07;74.91;103164.63;5073728;28;19969;-72
2022/01/26 01:06:51;;;;;;;;;;;;;;;3.06;75.04;103168.25;5073415;28;19940;-74
2022/01/26 01:09:18;;;;;;;;;;;;;;;3.04;75.46;103170.22;5073307;28;19912;-72
2022/01/26 01:11:43;;;;;;;;;;;;;;;3.06;75.11;103170.94;5073453;28;19923;-71
2022/01/26 01:14:09;;;;;;;;;;;;;;;3.07;75.23;103168.16;5073453;28;19920;-70
2022/01/26 01:16:34;;;;;;;;;;;;;;;3.11;74.94;103168.75;5073449;28;20271;-74
2022/01/26 01:19:09;;;;;;;;;;;;;;;3.07;74.88;103162.78;5071996;28;19912;-75
2022/01/26 01:26:58;;;;;;;;;;;;;;;3.06;75.07;103149.53;5073160;28;19916;-69
2022/01/26 01:29:28;;;;;;;;;;;;;;;3.16;74.28;103153.22;5073304;28;19966;-71
2022/01/26 01:34:22;;;;;;;;;;;;;;;2.98;75.31;103148.31;5073172;28;19916;-71
2022/01/26 01:36:51;;;;;;;;;;;;;;;2.98;75.14;103148.31;5072942;28;19912;-73
2022/01/26 01:39:17;;;;;;;;;;;;;;;2.97;75.15;103149.25;5073252;28;20259;-72
2022/01/26 01:41:43;;;;;;;;;;;;;;;3.01;75.10;103139.19;5073126;28;19912;-72
2022/01/26 01:44:09;;;;;;;;;;;;;;;2.99;75.11;103133.97;5071615;28;19916;-74
2022/01/26 01:46:34;;;;;;;;;;;;;;;3.00;75.14;103135.69;5071874;28;19919;-74
2022/01/26 01:49:00;;;;;;;;;;;;;;;3.01;75.02;103132.00;5072997;28;20255;-74
2022/01/26 01:51:31;;;;;;;;;;;;;;;2.99;75.55;103133.97;5073189;28;20003;-77
2022/01/26 01:53:57;;;;;;;;;;;;;;;3.04;75.46;103135.44;5072747;28;20367;-73
2022/01/26 01:56:25;;;;;;;;;;;;;;;3.00;75.34;103140.16;5072689;28;19991;-74
2022/01/26 01:58:52;;;;;;;;;;;;;;;3.02;75.45;103143.59;5072732;28;19919;-74
2022/01/26 02:01:17;;;;;;;;;;;;;;;3.00;75.12;103135.69;5070463;28;19912;-73
2022/01/26 02:03:42;;;;;;;;;;;;;;;3.01;75.70;103131.16;5073033;28;20389;-70
2022/01/26 02:06:07;;;;;;;;;;;;;;;3.00;75.37;103133.00;5071415;28;19916;-72
2022/01/26 02:08:33;;;;;;;;;;;;;;;2.99;75.48;103136.63;5072918;28;19952;-69
2022/01/26 02:10:58;;;;;;;;;;;;;;;3.00;75.01;103134.81;5072374;28;19963;-72
2022/01/26 02:13:32;;;;;;;;;;;;;;;3.12;74.61;103128.50;5073396;28;20350;-70
2022/01/26 02:18:38;;;;;;;;;;;;;;;2.90;75.06;103112.41;5072866;28;19912;-74
2022/01/26 03:02:10;;;;;;;;;;;;;;;3.02;75.97;103060.66;5073043;28;19970;-71
2022/01/26 03:04:43;;;;;;;;;;;;;;;3.04;75.23;103068.56;5076008;28;19913;-75
2022/01/26 03:09:42;;;;;;;;;;;;;;;2.99;75.73;103072.44;5075821;28;19913;-75
2022/01/26 03:12:09;;;;;;;;;;;;;;;2.99;75.58;103067.09;5075616;28;20344;-77
2022/01/26 03:17:09;;;;;;;;;;;;;;;2.98;75.84;103056.50;5075558;28;19912;-74
2022/01/26 03:19:38;;;;;;;;;;;;;;;3.00;75.90;103059.91;5074395;28;20011;-74
2022/01/26 03:30:01;;;;;;;;;;;;;;;3.00;76.22;103059.91;5075481;28;19916;-74
2022/01/26 03:34:57;;;;;;;;;;;;;;;3.04;75.84;103074.75;5075164;28;20352;-73
2022/01/26 03:37:27;;;;;;;;;;;;;;;3.06;75.85;103071.97;5075402;28;19966;-72
2022/01/26 03:39:53;;;;;;;;;;;;;;;3.06;76.13;103059.44;5075097;28;19928;-76
2022/01/26 03:42:18;;;;;;;;;;;;;;;3.08;75.31;103059.31;5074034;28;20335;-75
2022/01/26 03:44:44;;;;;;;;;;;;;;;3.09;75.72;103066.38;5075283;28;19920;-74
2022/01/26 03:47:09;;;;;;;;;;;;;;;3.10;76.22;103068.91;5074427;28;19920;-70
2022/01/26 03:49:35;;;;;;;;;;;;;;;3.11;75.90;103067.09;5075193;28;19912;-72
2022/01/26 03:52:00;;;;;;;;;;;;;;;3.12;75.92;103052.75;5074853;28;19919;-71
2022/01/26 03:54:25;;;;;;;;;;;;;;;3.14;76.18;103045.44;5075017;28;19912;-76
2022/01/26 03:56:51;;;;;;;;;;;;;;;3.13;76.04;103047.28;5075081;28;19942;-72
2022/01/26 03:59:17;;;;;;;;;;;;;;;3.14;76.33;103050.78;5075046;28;20293;-73
2022/01/26 04:01:42;;;;;;;;;;;;;;;3.14;75.93;103053.47;5070952;28;19913;-71
2022/01/26 04:04:07;;;;;;;;;;;;;;;3.12;75.47;103074.16;5074648;28;19912;-73
2022/01/26 04:06:33;;;;;;;;;;;;;;;3.06;75.84;103059.44;5074890;28;20252;-74
2022/01/26 04:08:59;;;;;;;;;;;;;;;3.06;75.68;103066.63;5073315;28;19916;-71
2022/01/26 04:13:50;;;;;;;;;;;;;;;3.08;76.07;103061.97;5075013;28;19916;-73
2022/01/26 04:16:16;;;;;;;;;;;;;;;3.09;75.94;103061.03;5074360;28;20352;-75
2022/01/26 04:18:42;;;;;;;;;;;;;;;3.08;76.37;103057.50;5074642;28;20003;-70
2022/01/26 04:23:59;;;;;;;;;;;;;;;3.00;76.04;103060.78;5073031;28;20268;-70
2022/01/26 04:26:36;;;;;;;;;;;;;;;2.98;75.96;103052.00;5073349;28;19913;-71
2022/01/26 04:29:11;;;;;;;;;;;;;;;2.99;76.00;103048.38;5074318;28;19920;-72
2022/01/26 04:31:36;;;;;;;;;;;;;;;2.99;76.21;103056.41;5074424;28;19913;-74
2022/01/26 04:34:01;;;;;;;;;;;;;;;3.01;76.07;103062.47;5072720;28;20275;-73
2022/01/26 04:36:39;;;;;;;;;;;;;;;2.97;75.96;103058.31;5072971;28;19912;-73
2022/01/26 04:39:09;;;;;;;;;;;;;;;2.94;76.05;103057.72;5074013;28;19943;-70
2022/01/26 04:41:50;;;;;;;;;;;;;;;2.92;75.84;103075.72;5074168;28;20153;-71
2022/01/26 04:44:29;;;;;;;;;;;;;;;2.90;75.82;103081.19;5073648;28;20372;-72
2022/01/26 04:46:54;;;;;;;;;;;;;;;2.89;76.26;103090.19;5073978;28;19912;-71
2022/01/26 04:49:20;;;;;;;;;;;;;;;2.88;75.99;103096.47;5073784;28;19912;-70
2022/01/26 04:51:46;;;;;;;;;;;;;;;2.87;76.21;103093.94;5074304;28;20313;-71
2022/01/26 04:54:11;;;;;;;;;;;;;;;2.85;76.13;103099.41;5073902;28;20387;-71
2022/01/26 04:56:37;;;;;;;;;;;;;;;2.84;76.36;103092.38;5073948;28;19913;-76
2022/01/26 04:59:02;;;;;;;;;;;;;;;2.82;76.36;103078.25;5072496;28;19916;-75
2022/01/26 05:01:27;;;;;;;;;;;;;;;2.82;76.34;103088.94;5071033;28;19912;-70
2022/01/26 05:03:53;;;;;;;;;;;;;;;2.78;76.37;103104.38;5073349;28;20375;-74
2022/01/26 05:06:18;;;;;;;;;;;;;;;2.79;76.13;103074.00;5073450;28;19916;-75
2022/01/26 05:08:43;;;;;;;;;;;;;;;2.78;76.49;103091.00;5073588;28;19955;-73
2022/01/26 05:11:11;;;;;;;;;;;;;;;2.79;76.58;103075.81;5073319;28;20339;-75
2022/01/26 05:13:37;;;;;;;;;;;;;;;2.82;76.75;103083.59;5073542;28;19983;-73
2022/01/26 05:16:05;;;;;;;;;;;;;;;2.80;76.70;103085.53;5073171;28;19916;-69
2022/01/26 05:18:30;;;;;;;;;;;;;;;2.81;76.13;103084.59;5073501;28;19948;-73
2022/01/26 05:20:56;;;;;;;;;;;;;;;2.77;76.73;103070.56;5073545;28;19957;-73
2022/01/26 05:23:22;;;;;;;;;;;;;;;2.77;76.49;103059.03;5073333;28;19926;-69
2022/01/26 05:25:47;;;;;;;;;;;;;;;2.78;76.75;103052.72;5073330;28;19916;-73
2022/01/26 05:28:12;;;;;;;;;;;;;;;2.78;76.91;103056.25;5071552;28;19999;-73
2022/01/26 05:30:37;;;;;;;;;;;;;;;2.76;76.37;103038.63;5073329;28;20003;-69
2022/01/26 05:33:04;;;;;;;;;;;;;;;2.77;76.56;103040.31;5073060;28;19935;-72
2022/01/26 05:35:29;;;;;;;;;;;;;;;2.81;76.57;103049.81;5073280;28;19916;-72
2022/01/26 05:37:55;;;;;;;;;;;;;;;2.77;76.64;103029.63;5073221;28;19912;-70
2022/01/26 05:40:20;;;;;;;;;;;;;;;2.76;76.57;103046.63;5071705;28;20269;-73
2022/01/26 05:42:45;;;;;;;;;;;;;;;2.73;76.90;103053.06;5073162;28;19912;-71
2022/01/26 05:45:22;;;;;;;;;;;;;;;2.71;76.70;103047.00;5072934;28;19912;-70
2022/01/26 05:47:47;;;;;;;;;;;;;;;2.72;77.01;103051.38;5073108;28;19913;-73
2022/01/26 05:50:12;;;;;;;;;;;;;;;2.72;76.87;103034.47;5072853;28;19912;-74
2022/01/26 05:52:37;;;;;;;;;;;;;;;2.70;76.89;103039.94;5072996;28;19912;-71
2022/01/26 05:55:03;;;;;;;;;;;;;;;2.72;77.06;103042.50;5072613;28;19913;-73
2022/01/26 05:57:28;;;;;;;;;;;;;;;2.71;76.68;103038.13;5072774;28;20011;-76
2022/01/26 05:59:54;;;;;;;;;;;;;;;2.71;77.06;103040.81;5072697;28;19912;-69
2022/01/26 06:02:19;;;;;;;;;;;;;;;2.80;76.88;103042.75;5070046;28;19920;-75
2022/01/26 06:04:45;;;;;;;;;;;;;;;2.72;76.84;103026.44;5073000;28;19917;-72
2022/01/26 06:07:10;;;;;;;;;;;;;;;2.69;77.09;103024.88;5072701;28;20039;-70
2022/01/26 06:09:35;;;;;;;;;;;;;;;2.70;76.93;103020.38;5074956;28;19912;-73
2022/01/26 06:12:00;;;;;;;;;;;;;;;2.69;77.25;103029.34;5077390;28;19977;-72
2022/01/26 06:14:25;;;;;;;;;;;;;;;2.71;76.77;103032.78;5075496;28;19920;-71
2022/01/26 06:16:50;;;;;;;;;;;;;;;2.71;77.32;103033.63;5075811;28;19958;-75
2022/01/26 06:19:16;;;;;;;;;;;;;;;2.71;77.38;103048.81;5076569;28;19912;-70
2022/01/26 06:21:41;;;;;;;;;;;;;;;2.71;77.22;103046.16;5076878;28;19913;-71
2022/01/26 06:24:06;;;;;;;;;;;;;;;2.73;77.04;103049.56;5076574;28;19970;-73
2022/01/26 06:26:31;;;;;;;;;;;;;;;2.72;77.16;103050.50;5076747;28;19912;-73
2022/01/26 06:28:57;;;;;;;;;;;;;;;2.73;77.51;103045.03;5076791;28;19995;-73
2022/01/26 06:31:26;;;;;;;;;;;;;;;2.73;77.54;103030.84;5076414;28;20221;-72
2022/01/26 06:33:51;;;;;;;;;;;;;;;2.74;77.38;103027.19;5076681;28;19919;-73
2022/01/26 06:36:18;;;;;;;;;;;;;;;2.78;77.20;103034.03;5075990;28;20015;-73
2022/01/26 06:38:44;;;;;;;;;;;;;;;2.76;77.80;103025.25;5075148;28;19913;-73
2022/01/26 06:41:10;;;;;;;;;;;;;;;2.72;77.31;103023.78;5076292;28;20249;-73
2022/01/26 06:43:43;;;;;;;;;;;;;;;2.74;77.38;103032.53;5076156;28;19924;-71
2022/01/26 06:46:09;;;;;;;;;;;;;;;2.71;77.04;103038.97;5076122;28;20378;-72
2022/01/26 06:48:47;;;;;;;;;;;;;;;2.64;77.25;103037.75;5076262;28;19916;-70
2022/01/26 06:51:12;;;;;;;;;;;;;;;2.59;77.78;103046.13;5076405;28;19965;-71
2022/01/26 06:53:38;;;;;;;;;;;;;;;2.64;77.44;103040.41;5076263;28;20454;-71
2022/01/26 06:56:03;;;;;;;;;;;;;;;2.62;77.71;103051.22;5076034;28;20401;-73
2022/01/26 06:58:29;;;;;;;;;;;;;;;2.63;77.72;103058.28;5076135;28;19924;-72
2022/01/26 07:00:54;;;;;;;;;;;;;;;2.65;77.83;103029.59;5073607;28;19927;-71
2022/01/26 07:03:19;;;;;;;;;;;;;;;2.64;77.60;103033.25;5075780;28;20003;-72
2022/01/26 07:05:44;;;;;;;;;;;;;;;2.59;77.77;103031.91;5075766;28;20005;-72
2022/01/26 07:08:09;;;;;;;;;;;;;;;2.60;78.11;103036.28;5075715;28;20256;-72
2022/01/26 07:10:35;;;;;;;;;;;;;;;2.57;78.24;103042.72;5075996;28;19999;-70
2022/01/26 07:13:02;;;;;;;;;;;;;;;2.58;78.34;103032.88;5075682;28;19919;-71
2022/01/26 07:21:22;;;;;;;;;;;;;;;2.59;78.30;103039.94;5074973;28;19920;-73
2022/01/26 07:23:41;;;;;;;;;;;;;;;2.58;78.22;103055.13;5075269;28;19927;-70
2022/01/26 07:26:06;;;;;;;;;;;;;;;2.51;78.64;103064.56;5075208;28;19912;-75
2022/01/26 07:28:39;;;;;;;;;;;;;;;2.58;78.77;103076.50;5075617;28;20418;-72
2022/01/26 07:31:05;;;;;;;;;;;;;;;2.57;77.99;103069.44;5075576;28;19913;-70
2022/01/26 07:33:30;;;;;;;;;;;;;;;2.57;78.31;103055.25;5074933;28;19982;-74
2022/01/26 07:35:56;;;;;;;;;;;;;;;2.59;78.48;103069.34;5075429;28;19912;-72
2022/01/26 07:38:21;;;;;;;;;;;;;;;2.58;78.34;103057.78;5075158;28;19919;-72
2022/01/26 07:40:46;;;;;;;;;;;;;;;2.59;78.69;103062.16;5075415;28;19913;-73
2022/01/26 07:43:11;;;;;;;;;;;;;;;2.60;78.53;103065.69;5075029;28;19912;-70
2022/01/26 07:45:37;;;;;;;;;;;;;;;2.60;79.08;103063.88;5075253;28;19913;-71
2022/01/26 07:48:03;;;;;;;;;;;;;;;2.60;78.81;103057.69;5075056;28;20264;-76
2022/01/26 07:50:28;;;;;;;;;;;;;;;2.51;79.27;103063.69;5073754;28;19967;-71
2022/01/26 07:52:53;;;;;;;;;;;;;;;2.50;80.51;103067.38;5073832;28;19948;-73
2022/01/26 07:55:21;;;;;;;;;;;;;;;2.58;79.14;103054.25;5074858;28;19920;-73
2022/01/26 07:57:48;;;;;;;;;;;;;;;2.55;79.13;103050.03;5075122;28;19912;-75
2022/01/26 08:00:14;;;;;;;;;;;;;;;2.52;79.67;103062.75;5074772;28;20001;-73
2022/01/26 08:02:40;;;;;;;;;;;;;;;2.52;79.84;103076.97;5072111;28;20372;-71
2022/01/26 08:05:05;;;;;;;;;;;;;;;2.53;79.93;103088.50;5074942;28;19918;-71
2022/01/26 08:07:30;;;;;;;;;;;;;;;2.46;79.79;103102.34;5074603;28;19939;-73
2022/01/26 08:09:56;;;;;;;;;;;;;;;2.54;80.45;103096.41;5073618;28;20139;-73
2022/01/26 08:12:21;;;;;;;;;;;;;;;2.55;80.72;103092.78;5074403;28;19938;-72
2022/01/26 08:14:46;;;;;;;;;;;;;;;2.50;80.36;103089.59;5073376;28;19999;-73
2022/01/26 08:17:14;;;;;;;;;;;;;;;2.51;79.85;103085.97;5074420;28;19912;-73
2022/01/26 08:19:40;;;;;;;;;;;;;;;2.51;80.29;103090.44;5074631;28;19917;-70
2022/01/26 08:22:05;;;;;;;;;;;;;;;2.53;80.44;103093.84;5073260;28;19970;-73
2022/01/26 08:24:31;;;;;;;;;;;;;;;2.51;81.10;103095.78;5074324;28;20339;-68
2022/01/26 08:27:00;;;;;;;;;;;;;;;2.58;80.81;103092.53;5074198;28;19938;-70
2022/01/26 08:29:33;;;;;;;;;;;;;;;2.57;80.71;103085.50;5072629;28;19913;-73
2022/01/26 08:31:58;;;;;;;;;;;;;;;2.57;80.23;103079.31;5074080;28;19908;-70
2022/01/26 08:34:23;;;;;;;;;;;;;;;2.54;80.58;103079.53;5072746;28;19914;-70
2022/01/26 08:36:48;;;;;;;;;;;;;;;2.57;80.58;103082.81;5074018;28;19918;-71
2022/01/26 08:39:14;;;;;;;;;;;;;;;2.61;80.76;103078.06;5072492;28;19916;-70
2022/01/26 08:41:39;;;;;;;;;;;;;;;2.65;80.71;103088.41;5073903;28;19995;-73
2022/01/26 08:44:04;;;;;;;;;;;;;;;2.65;80.68;103085.75;5074133;28;19913;-73
2022/01/26 08:46:30;;;;;;;;;;;;;;;2.69;80.71;103081.03;5073863;28;19930;-75
2022/01/26 08:48:55;;;;;;;;;;;;;;;2.64;81.01;103094.75;5074289;28;19952;-73
2022/01/26 08:51:20;;;;;;;;;;;;;;;2.60;80.67;103101.28;5073717;28;19912;-71
2022/01/26 08:53:46;;;;;;;;;;;;;;;2.59;81.33;103086.22;5073928;28;19912;-70
2022/01/26 08:56:11;;;;;;;;;;;;;;;2.64;81.32;103097.44;5072330;28;19926;-70
2022/01/26 08:58:37;;;;;;;;;;;;;;;2.58;81.19;103087.19;5073800;28;19920;-70
2022/01/26 09:01:02;;;;;;;;;;;;;;;2.59;81.61;103098.72;5069864;28;19990;-75
2022/01/26 09:03:27;;;;;;;;;;;;;;;2.62;81.78;103095.81;5073564;28;19923;-73
2022/01/26 09:05:52;;;;;;;;;;;;;;;2.62;81.47;103099.34;5073459;28;19917;-71
2022/01/26 09:08:18;;;;;;;;;;;;;;;2.74;81.49;103094.88;5072147;28;20602;-72
2022/01/26 09:10:43;;;;;;;;;;;;;;;2.66;81.74;103084.78;5073754;28;20031;-73
2022/01/26 09:13:09;;;;;;;;;;;;;;;2.69;81.38;103082.81;5073371;28;19924;-73
2022/01/26 09:15:39;;;;;;;;;;;;;;;2.68;81.65;103091.84;5073213;28;19919;-70
2022/01/26 09:18:06;;;;;;;;;;;;;;;2.72;81.68;103093.28;5073546;28;19918;-73
2022/01/26 09:20:35;;;;;;;;;;;;;;;2.70;82.52;103100.59;5071875;28;20010;-71
2022/01/26 09:23:00;;;;;;;;;;;;;;;2.72;81.86;103093.28;5072202;28;19916;-72
2022/01/26 09:25:25;;;;;;;;;;;;;;;2.82;81.51;103099.63;5072850;28;20261;-73
2022/01/26 09:27:50;;;;;;;;;;;;;;;2.86;81.86;103105.63;5073313;28;19912;-72
2022/01/26 09:30:16;;;;;;;;;;;;;;;2.77;81.79;103116.03;5071802;28;19995;-71
2022/01/26 09:32:41;;;;;;;;;;;;;;;2.75;81.96;103111.75;5073205;28;20425;-70
2022/01/26 09:35:07;;;;;;;;;;;;;;;2.72;82.66;103109.31;5071846;28;19957;-72
2022/01/26 09:37:33;;;;;;;;;;;;;;;2.74;82.11;103110.09;5071638;28;20400;-71
2022/01/26 09:39:58;;;;;;;;;;;;;;;2.74;81.86;103108.25;5073517;28;19956;-72
2022/01/26 09:42:24;;;;;;;;;;;;;;;2.74;82.08;103102.91;5072700;28;19912;-71
2022/01/26 09:44:49;;;;;;;;;;;;;;;2.77;81.95;103091.97;5072759;28;19985;-71
2022/01/26 09:47:14;;;;;;;;;;;;;;;2.81;81.67;103089.94;5071700;28;20002;-71
2022/01/26 09:49:40;;;;;;;;;;;;;;;2.85;82.11;103091.38;5073108;28;19912;-72
2022/01/26 09:52:13;;;;;;;;;;;;;;;2.92;81.84;103083.75;5073086;28;19912;-73
2022/01/26 09:54:39;;;;;;;;;;;;;;;2.87;82.20;103068.06;5072933;28;20279;-72
2022/01/26 09:57:04;;;;;;;;;;;;;;;2.86;81.83;103065.50;5072717;28;20058;-72
2022/01/26 09:59:31;;;;;;;;;;;;;;;2.86;82.06;103068.19;5072674;28;20313;-70
2022/01/26 10:01:56;;;;;;;;;;;;;;;2.91;82.09;103076.69;5070391;28;19916;-72
2022/01/26 10:04:21;;;;;;;;;;;;;;;2.92;81.75;103073.88;5071127;28;20278;-73
2022/01/26 10:06:58;;;;;;;;;;;;;;;2.91;81.90;103077.53;5072704;28;19912;-73
2022/01/26 10:09:40;;;;;;;;;;;;;;;2.91;82.12;103076.69;5072845;28;20287;-71
2022/01/26 10:17:36;;;;;;;;;;;;;;;2.99;81.52;103072.44;5072601;28;20457;-72
2022/01/26 10:20:03;;;;;;;;;;;;;;;2.99;81.97;103077.78;5071431;28;19916;-71
2022/01/26 10:22:32;;;;;;;;;;;;;;;2.96;82.03;103077.16;5072483;28;19912;-72
2022/01/26 10:25:12;;;;;;;;;;;;;;;3.00;81.63;103070.59;5072707;28;19952;-69
2022/01/26 10:27:39;;;;;;;;;;;;;;;3.04;81.65;103065.91;5072510;28;19919;-72
2022/01/26 10:30:06;;;;;;;;;;;;;;;3.05;81.77;103054.19;5072417;28;19912;-70
2022/01/26 10:32:32;;;;;;;;;;;;;;;2.98;82.58;103057.34;5072361;28;19966;-70
2022/01/26 10:35:00;;;;;;;;;;;;;;;3.00;81.93;103058.09;5072555;28;19973;-70
2022/01/26 10:37:26;;;;;;;;;;;;;;;3.00;81.98;103073.28;5072383;28;20374;-72
2022/01/26 10:39:53;;;;;;;;;;;;;;;3.03;81.92;103069.53;5072301;28;19913;-70
2022/01/26 10:42:20;;;;;;;;;;;;;;;3.04;82.22;103088.13;5072316;28;20275;-71
2022/01/26 10:44:52;;;;;;;;;;;;;;;3.06;82.10;103114.75;5072517;28;20010;-71
2022/01/26 10:47:27;;;;;;;;;;;;;;;3.09;82.56;103122.53;5072330;28;19957;-71
2022/01/26 10:50:08;;;;;;;;;;;;;;;3.12;81.97;103127.66;5072523;28;19916;-71
2022/01/26 10:52:38;;;;;;;;;;;;;;;3.19;81.62;103116.34;5070981;28;20295;-73
2022/01/26 10:55:07;;;;;;;;;;;;;;;3.17;82.04;103110.28;5071057;28;20271;-73
2022/01/26 10:57:34;;;;;;;;;;;;;;;3.14;82.20;103110.53;5075425;28;19948;-71
2022/01/26 11:00:01;;;;;;;;;;;;;;;3.10;82.31;103108.22;5076167;28;19912;-72
2022/01/26 11:02:30;;;;;;;;;;;;;;;3.19;81.85;103107.50;5073167;28;20364;-73
2022/01/26 11:04:55;;;;;;;;;;;;;;;3.13;82.49;103107.97;5076055;28;20303;-70
2022/01/26 11:07:28;;;;;;;;;;;;;;;3.14;82.13;103109.66;5076022;28;19912;-71
2022/01/26 11:09:54;;;;;;;;;;;;;;;3.14;81.94;103094.47;5075599;28;20284;-75
2022/01/26 11:12:27;;;;;;;;;;;;;;;3.09;82.33;103106.50;5075565;28;19912;-73
2022/01/26 11:14:57;;;;;;;;;;;;;;;3.12;82.42;103095.56;5075860;28;19912;-71
2022/01/26 11:17:23;;;;;;;;;;;;;;;3.12;82.60;103085.69;5075557;28;19913;-68
2022/01/26 11:19:49;;;;;;;;;;;;;;;3.06;82.55;103094.19;5075764;28;19959;-69
2022/01/26 11:22:14;;;;;;;;;;;;;;;3.08;82.90;103094.09;5075716;28;19959;-73
2022/01/26 11:24:49;;;;;;;;;;;;;;;3.14;82.36;103088.25;5074210;28;20435;-74
2022/01/26 11:27:16;;;;;;;;;;;;;;;3.16;82.06;103086.31;5075665;28;19958;-72
2022/01/26 11:29:45;;;;;;;;;;;;;;;3.14;82.76;103082.91;5075371;28;19916;-69
2022/01/26 11:32:20;;;;;;;;;;;;;;;3.14;82.31;103082.91;5074262;28;20283;-72
2022/01/26 11:34:48;;;;;;;;;;;;;;;3.15;82.79;103084.59;5075648;28;19959;-72
2022/01/26 11:37:15;;;;;;;;;;;;;;;3.15;82.70;103084.59;5075844;28;19966;-71
2022/01/26 11:45:12;;;;;;;;;;;;;;;3.23;82.86;103059.91;5075702;28;19958;-70
2022/01/26 11:47:57;;;;;;;;;;;;;;;3.22;83.39;103048.38;5074986;28;20006;-71
2022/01/26 11:50:25;;;;;;;;;;;;;;;3.24;83.52;103050.94;5074616;28;19913;-72
2022/01/26 11:53:17;;;;;;;;;;;;;;;3.25;83.40;103044.63;5073847;28;20278;-71
2022/01/26 11:55:48;;;;;;;;;;;;;;;3.24;83.44;103046.41;5071361;28;19967;-75
2022/01/26 11:58:15;;;;;;;;;;;;;;;3.25;83.54;103050.81;5075110;28;19912;-71
2022/01/26 12:00:47;;;;;;;;;;;;;;;3.26;83.18;103049.84;5070983;28;19913;-69
2022/01/26 12:03:23;;;;;;;;;;;;;;;3.26;83.34;103051.66;5075000;28;19916;-72
2022/01/26 12:05:50;;;;;;;;;;;;;;;3.29;83.13;103036.22;5074998;28;19913;-71
2022/01/26 12:08:25;;;;;;;;;;;;;;;3.30;82.75;103040.56;5074448;28;20352;-74
2022/01/26 12:10:51;;;;;;;;;;;;;;;3.32;83.09;103046.66;5074892;28;19912;-70
2022/01/26 12:13:19;;;;;;;;;;;;;;;3.35;83.19;103034.84;5074726;28;19913;-74
2022/01/26 12:15:55;;;;;;;;;;;;;;;3.36;83.01;103034.72;5074102;28;20280;-73
2022/01/26 12:42:42;;;;;;;;;;;;;;;3.47;82.46;103038.38;5071728;28;20514;-72
2022/01/26 12:45:07;;;;;;;;;;;;;;;3.48;82.63;103042.75;5074092;28;19913;-74
2022/01/26 12:47:33;;;;;;;;;;;;;;;3.46;82.27;103040.19;5073948;28;20011;-74
2022/01/26 12:49:59;;;;;;;;;;;;;;;3.48;82.49;103037.41;5072376;28;20020;-74
2022/01/26 12:52:24;;;;;;;;;;;;;;;3.45;82.73;103045.69;5073903;28;19919;-72
2022/01/26 12:54:49;;;;;;;;;;;;;;;3.45;82.51;103043.00;5073583;28;19958;-74
2022/01/26 12:57:14;;;;;;;;;;;;;;;3.49;82.44;103044.47;5073881;28;19966;-68
2022/01/26 12:59:40;;;;;;;;;;;;;;;3.48;82.22;103040.91;5072319;28;19919;-69
2022/01/26 13:02:05;;;;;;;;;;;;;;;3.46;82.50;103044.72;5070936;28;19955;-69
2022/01/26 13:04:30;;;;;;;;;;;;;;;3.47;82.70;103044.59;5073553;28;19913;-71
2022/01/26 13:06:55;;;;;;;;;;;;;;;3.47;82.76;103035.69;5073704;28;19981;-72
2022/01/26 13:09:26;;;;;;;;;;;;;;;3.55;82.33;103038.63;5073191;28;20418;-68
2022/01/26 13:11:54;;;;;;;;;;;;;;;3.48;82.60;103026.69;5073359;28;19977;-71
2022/01/26 13:14:24;;;;;;;;;;;;;;;3.54;82.26;103008.28;5072135;28;20057;-72
2022/01/26 13:17:03;;;;;;;;;;;;;;;3.47;82.68;103009.78;5072006;28;19924;-71
2022/01/26 13:32:37;;;;;;;;;;;;;;;3.51;82.33;103000.50;5073396;28;19917;-73
2022/01/26 13:43:40;;;;;;;;;;;;;;;3.53;82.17;103003.94;5071860;28;20306;-69
2022/01/26 13:56:16;;;;;;;;;;;;;;;3.61;82.40;102984.56;5072867;28;20310;-72
2022/01/26 13:58:54;;;;;;;;;;;;;;;3.59;82.30;102986.50;5072437;28;20295;-71
2022/01/26 14:01:20;;;;;;;;;;;;;;;3.57;83.01;102976.91;5069098;28;19931;-71
2022/01/26 14:03:51;;;;;;;;;;;;;;;3.61;82.84;102978.34;5072303;28;19920;-70
2022/01/26 14:06:16;;;;;;;;;;;;;;;3.60;82.54;102979.34;5072879;28;20324;-70
2022/01/26 14:08:42;;;;;;;;;;;;;;;3.64;82.48;102984.31;5071409;28;20181;-71
2022/01/26 14:11:08;;;;;;;;;;;;;;;3.72;82.17;102981.84;5072757;28;19912;-73
2022/01/26 14:13:35;;;;;;;;;;;;;;;3.71;82.50;102973.94;5071203;28;19916;-71
2022/01/26 14:16:00;;;;;;;;;;;;;;;3.64;82.28;102973.59;5072737;28;19912;-75
2022/01/26 14:21:12;;;;;;;;;;;;;;;3.75;82.27;102963.84;5072462;28;19928;-73
2022/01/26 14:23:56;;;;;;;;;;;;;;;3.73;82.32;102966.63;5072531;28;19913;-68
2022/01/26 14:26:24;;;;;;;;;;;;;;;3.65;82.57;102964.56;5072819;28;20054;-71
2022/01/26 14:28:50;;;;;;;;;;;;;;;3.70;82.63;102970.41;5072764;28;19927;-73
2022/01/26 14:36:44;;;;;;;;;;;;;;;3.69;82.31;102957.16;5076366;28;19918;-73
2022/01/26 14:53:12;;;;;;;;;;;;;;;3.62;82.56;102948.75;5075749;28;19958;-73
2022/01/26 15:08:43;;;;;;;;;;;;;;;3.62;82.19;102953.28;5073607;28;19919;-75
2022/01/26 15:34:23;;;;;;;;;;;;;;;3.57;82.60;102967.03;5074755;28;20355;-69
2022/01/26 15:50:15;;;;;;;;;;;;;;;3.60;82.49;102958.75;5074798;28;19962;-71
2022/01/26 15:52:51;;;;;;;;;;;;;;;3.58;82.51;102951.81;5075019;28;20348;-71
2022/01/26 15:58:28;;;;;;;;;;;;;;;3.49;82.55;102945.44;5074873;28;19967;-70
2022/01/26 16:06:39;;;;;;;;;;;;;;;3.49;82.55;102948.09;5074760;28;20367;-71
2022/01/26 16:52:23;;;;;;;;;;;;;;;3.37;82.71;102961.50;5058353;28;19931;-69
2022/01/26 17:12:14;;;;;;;;;;;;;;;3.42;82.57;102949.56;5054405;28;19935;-71
2022/01/26 17:26:40;;;;;;;;;;;;;;;3.29;83.11;102957.75;5071848;28;19969;-75
2022/01/26 18:49:14;;;;;;;;;;;;;;;3.36;83.12;102911.63;5052520;28;19970;-75
2022/01/26 18:51:41;;;;;;;;;;;;;;;3.33;82.62;102911.03;5053727;28;20020;-71
2022/01/26 18:54:07;;;;;;;;;;;;;;;3.43;82.01;102903.94;5072121;28;19951;-72
2022/01/26 18:56:34;;;;;;;;;;;;;;;3.28;83.00;102905.22;5072094;28;20331;-74
2022/01/26 18:58:59;;;;;;;;;;;;;;;3.25;82.80;102895.59;5072241;28;19970;-72
2022/01/26 19:01:25;;;;;;;;;;;;;;;3.28;82.74;102895.34;5069872;28;19960;-70
2022/01/26 19:03:50;;;;;;;;;;;;;;;3.28;82.60;102902.53;5071973;28;19920;-74
2022/01/26 19:06:16;;;;;;;;;;;;;;;3.24;82.66;102901.94;5072141;28;20375;-72
2022/01/26 19:08:42;;;;;;;;;;;;;;;3.25;82.75;102897.44;5072118;28;19931;-73
2022/01/26 19:11:11;;;;;;;;;;;;;;;3.20;82.93;102895.13;5071926;28;20276;-70
2022/01/26 19:13:37;;;;;;;;;;;;;;;3.29;82.42;102889.03;5072112;28;19931;-72
2022/01/26 19:16:09;;;;;;;;;;;;;;;3.21;82.20;102883.44;5071690;28;19916;-73
2022/01/26 19:19:26;;;;;;;;;;;;;;;3.18;82.82;102881.88;5075494;28;19916;-71
2022/01/26 19:21:41;;;;;;;;;;;;;;;3.23;82.49;102888.69;5074869;28;19913;-73
2022/01/26 19:27:16;;;;;;;;;;;;;;;3.24;82.58;102893.91;5062843;28;19947;-73
2022/01/26 19:32:35;;;;;;;;;;;;;;;3.26;82.71;102883.94;5075382;28;19965;-75
2022/01/26 19:51:06;;;;;;;;;;;;;;;3.15;82.40;102879.44;5074876;28;19919;-75